createdAt,value
2023-02-08T00:00:01.614Z,0.05
2023-02-08T00:02:03.285Z,0.04
2023-02-08T00:04:04.865Z,-0.01
2023-02-08T00:06:09.760Z,-0.02
2023-02-08T00:08:11.354Z,-0.03
2023-02-08T00:10:13.189Z,-0.04
2023-02-08T00:12:14.768Z,-0.04
2023-02-08T00:14:16.369Z,-0.05
2023-02-08T00:16:18.869Z,-0.09
2023-02-08T00:18:21.460Z,-0.10
2023-02-08T00:20:23.250Z,-0.14
2023-02-08T00:22:24.788Z,-0.13
2023-02-08T00:24:26.331Z,-0.18
2023-02-08T00:26:28.025Z,-0.19
2023-02-08T00:28:29.653Z,-0.20
2023-02-08T00:30:31.776Z,-0.23
2023-02-08T00:32:35.836Z,-0.24
2023-02-08T00:34:38.877Z,-0.24
2023-02-08T00:36:40.567Z,-0.27
2023-02-08T00:38:43.608Z,-0.29
2023-02-08T00:40:45.470Z,-0.31
2023-02-08T00:42:48.442Z,-0.32
2023-02-08T00:44:50.102Z,-0.31
2023-02-08T00:46:51.871Z,-0.34
2023-02-08T00:48:54.376Z,-0.36
2023-02-08T00:51:01.237Z,-0.37
2023-02-08T00:53:05.961Z,-0.38
2023-02-08T00:55:08.911Z,-0.39
2023-02-08T00:57:10.801Z,-0.42
2023-02-08T00:59:12.835Z,-0.44
2023-02-08T01:01:15.288Z,-0.45
2023-02-08T01:03:21.796Z,-0.48
2023-02-08T01:05:26.166Z,-0.50
2023-02-08T01:07:27.821Z,-0.49
2023-02-08T01:09:31.830Z,-0.51
2023-02-08T01:11:33.503Z,-0.54
2023-02-08T01:13:36.320Z,-0.54
2023-02-08T01:15:38.212Z,-0.56
2023-02-08T01:17:39.779Z,-0.57
2023-02-08T01:19:42.619Z,-0.58
2023-02-08T01:21:44.740Z,-0.60
2023-02-08T01:23:46.870Z,-0.61
2023-02-08T01:25:48.437Z,-0.63
2023-02-08T01:27:50.095Z,-0.67
2023-02-08T01:29:55.656Z,-0.66
2023-02-08T01:31:57.378Z,-0.69
2023-02-08T01:33:59.554Z,-0.70
2023-02-08T01:36:02.085Z,-0.71
2023-02-08T01:38:06.801Z,-0.73
2023-02-08T01:40:08.899Z,-0.74
2023-02-08T01:42:17.107Z,-0.76
2023-02-08T01:44:18.917Z,-0.78
2023-02-08T01:46:21.479Z,-0.77
2023-02-08T01:48:29.300Z,-0.79
2023-02-08T01:50:39.806Z,-0.83
2023-02-08T01:52:43.576Z,-0.81
2023-02-08T01:55:01.891Z,-0.82
2023-02-08T01:57:04.060Z,-0.82
2023-02-08T01:59:10.956Z,-0.85
2023-02-08T02:01:14.004Z,-0.87
2023-02-08T02:03:24.168Z,-0.89
2023-02-08T02:05:32.451Z,-0.88
2023-02-08T02:07:34.323Z,-0.88
2023-02-08T02:09:59.813Z,-0.91
2023-02-08T02:12:05.178Z,-0.92
2023-02-08T02:14:07.935Z,-0.95
2023-02-08T02:16:09.726Z,-0.95
2023-02-08T02:18:14.005Z,-0.98
2023-02-08T02:20:33.835Z,-0.99
2023-02-08T02:23:08.811Z,-1.01
2023-02-08T02:25:20.403Z,-1.02
2023-02-08T02:27:40.046Z,-1.05
2023-02-08T02:30:19.777Z,-1.09
2023-02-08T02:32:40.124Z,-1.10
2023-02-08T02:35:06.597Z,-1.11
2023-02-08T02:37:43.590Z,-1.13
2023-02-08T02:40:15.765Z,-1.13
2023-02-08T02:42:50.247Z,-1.14
2023-02-08T02:45:03.305Z,-1.14
2023-02-08T02:47:26.606Z,-1.19
2023-02-08T02:49:43.665Z,-1.20
2023-02-08T02:51:57.153Z,-1.22
2023-02-08T02:54:06.843Z,-1.24
2023-02-08T02:56:20.042Z,-1.30
2023-02-08T02:58:24.722Z,-1.25
2023-02-08T03:00:28.685Z,-1.27
2023-02-08T03:02:30.258Z,-1.28
2023-02-08T03:04:34.680Z,-1.31
2023-02-08T03:07:03.253Z,-1.33
2023-02-08T03:09:35.178Z,-1.33
2023-02-08T03:11:38.056Z,-1.36
2023-02-08T03:14:04.835Z,-1.37
2023-02-08T03:16:33.090Z,-1.38
2023-02-08T03:18:53.415Z,-1.37
2023-02-08T03:21:09.258Z,-1.39
2023-02-08T03:23:19.537Z,-1.38
2023-02-08T03:25:46.244Z,-1.41
2023-02-08T03:28:17.340Z,-1.43
2023-02-08T03:30:27.637Z,-1.45
2023-02-08T03:32:43.159Z,-1.46
2023-02-08T03:35:01.523Z,-1.47
2023-02-08T03:37:13.682Z,-1.47
2023-02-08T03:39:21.632Z,-1.49
2023-02-08T03:41:30.280Z,-1.49
2023-02-08T03:43:43.287Z,-1.49
2023-02-08T03:45:54.773Z,-1.50
2023-02-08T03:48:00.181Z,-1.52
2023-02-08T03:50:06.491Z,-1.51
2023-02-08T03:52:10.433Z,-1.52
2023-02-08T03:54:17.693Z,-1.55
2023-02-08T03:56:36.322Z,-1.57
2023-02-08T03:58:46.927Z,-1.57
2023-02-08T04:01:11.649Z,-1.59
2023-02-08T04:03:24.631Z,-1.61
2023-02-08T04:05:26.435Z,-1.61
2023-02-08T04:07:27.984Z,-1.61
2023-02-08T04:09:29.585Z,-1.61
2023-02-08T04:11:31.333Z,-1.63
2023-02-08T04:13:32.898Z,-1.62
2023-02-08T04:15:34.785Z,-1.63
2023-02-08T04:17:36.387Z,-1.66
2023-02-08T04:19:40.956Z,-1.68
2023-02-08T04:21:43.268Z,-1.68
2023-02-08T04:23:45.112Z,-1.68
2023-02-08T04:25:46.757Z,-1.70
2023-02-08T04:27:48.419Z,-1.71
2023-02-08T04:29:52.959Z,-1.74
2023-02-08T04:31:54.664Z,-1.76
2023-02-08T04:33:56.125Z,-1.76
2023-02-08T04:35:58.194Z,-1.76
2023-02-08T04:37:59.726Z,-1.77
2023-02-08T04:40:04.102Z,-1.77
2023-02-08T04:42:05.678Z,-1.78
2023-02-08T04:44:07.162Z,-1.77
2023-02-08T04:46:08.827Z,-1.79
2023-02-08T04:48:11.893Z,-1.78
2023-02-08T04:50:15.104Z,-1.80
2023-02-08T04:52:16.718Z,-1.79
2023-02-08T04:54:21.059Z,-1.81
2023-02-08T04:56:23.099Z,-1.81
2023-02-08T04:58:24.638Z,-1.81
2023-02-08T05:00:26.418Z,-1.82
2023-02-08T05:02:28.651Z,-1.82
2023-02-08T05:04:31.153Z,-1.83
2023-02-08T05:06:33.394Z,-1.82
2023-02-08T05:08:37.756Z,-1.81
2023-02-08T05:10:44.772Z,-1.85
2023-02-08T05:12:46.429Z,-1.85
2023-02-08T05:14:50.053Z,-1.87
2023-02-08T05:16:53.073Z,-1.87
2023-02-08T05:18:58.049Z,-1.88
2023-02-08T05:21:01.211Z,-1.88
2023-02-08T05:23:02.797Z,-1.87
2023-02-08T05:25:04.995Z,-1.89
2023-02-08T05:27:06.474Z,-1.92
2023-02-08T05:29:08.114Z,-1.89
2023-02-08T05:31:20.030Z,-1.91
2023-02-08T05:33:21.730Z,-1.92
2023-02-08T05:35:23.420Z,-1.90
2023-02-08T05:37:25.416Z,-1.92
2023-02-08T05:39:29.538Z,-1.92
2023-02-08T05:41:31.144Z,-1.94
2023-02-08T05:43:32.809Z,-1.94
2023-02-08T05:45:34.436Z,-1.95
2023-02-08T05:47:36.748Z,-1.95
2023-02-08T05:49:41.052Z,-1.99
2023-02-08T05:51:42.860Z,-2.00
2023-02-08T05:53:45.407Z,-1.99
2023-02-08T05:55:48.587Z,-2.00
2023-02-08T05:57:50.192Z,-2.02
2023-02-08T05:59:53.730Z,-2.02
2023-02-08T06:01:55.392Z,-2.04
2023-02-08T06:03:59.655Z,-2.05
2023-02-08T06:06:01.723Z,-2.07
2023-02-08T06:08:05.214Z,-2.03
2023-02-08T06:10:10.065Z,-2.07
2023-02-08T06:12:12.782Z,-2.07
2023-02-08T06:14:14.606Z,-2.07
2023-02-08T06:16:19.570Z,-2.08
2023-02-08T06:18:21.615Z,-2.08
2023-02-08T06:20:23.628Z,-2.08
2023-02-08T06:22:28.253Z,-2.07
2023-02-08T06:24:29.965Z,-2.10
2023-02-08T06:26:31.650Z,-2.11
2023-02-08T06:28:33.337Z,-2.14
2023-02-08T06:30:35.098Z,-2.15
2023-02-08T06:32:36.954Z,-2.15
2023-02-08T06:34:38.493Z,-2.17
2023-02-08T06:36:44.366Z,-2.16
2023-02-08T06:38:46.007Z,-2.18
2023-02-08T06:40:48.554Z,-2.19
2023-02-08T06:42:50.733Z,-2.16
2023-02-08T06:44:55.968Z,-2.21
2023-02-08T06:46:57.780Z,-2.22
2023-02-08T06:49:00.438Z,-2.20
2023-02-08T06:51:02.437Z,-2.23
2023-02-08T06:53:10.046Z,-2.23
2023-02-08T06:55:14.489Z,-2.24
2023-02-08T06:57:16.382Z,-2.22
2023-02-08T06:59:20.291Z,-2.21
2023-02-08T07:01:23.260Z,-2.22
2023-02-08T07:03:24.826Z,-2.24
2023-02-08T07:05:27.263Z,-2.23
2023-02-08T07:07:28.983Z,-2.22
2023-02-08T07:09:30.523Z,-2.23
2023-02-08T07:11:32.183Z,-2.22
2023-02-08T07:13:33.919Z,-2.20
2023-02-08T07:15:41.419Z,-2.20
2023-02-08T07:17:48.925Z,-2.19
2023-02-08T07:19:50.956Z,-2.18
2023-02-08T07:21:52.755Z,-2.16
2023-02-08T07:23:55.745Z,-2.11
2023-02-08T07:25:59.344Z,-2.11
2023-02-08T07:28:03.335Z,-2.11
2023-02-08T07:30:05.758Z,-2.12
2023-02-08T07:32:08.393Z,-2.10
2023-02-08T07:34:10.011Z,-2.08
2023-02-08T07:36:12.336Z,-2.08
2023-02-08T07:38:20.552Z,-2.05
2023-02-08T07:40:22.366Z,-2.04
2023-02-08T07:42:26.201Z,-2.01
2023-02-08T07:44:39.993Z,-1.97
2023-02-08T07:46:41.707Z,-1.94
2023-02-08T07:48:46.637Z,-1.94
2023-02-08T07:50:48.174Z,-1.86
2023-02-08T07:52:49.769Z,-1.84
2023-02-08T07:54:51.640Z,-1.80
2023-02-08T07:57:00.526Z,-1.78
2023-02-08T07:59:03.384Z,-1.75
2023-02-08T08:01:21.071Z,-1.71
2023-02-08T08:03:23.443Z,-1.69
2023-02-08T08:05:32.654Z,-1.65
2023-02-08T08:07:34.295Z,-1.59
2023-02-08T08:09:35.921Z,-1.52
2023-02-08T08:11:37.496Z,-1.49
2023-02-08T08:13:39.020Z,-1.43
2023-02-08T08:15:41.456Z,-1.38
2023-02-08T08:17:43.523Z,-1.32
2023-02-08T08:19:45.417Z,-1.24
2023-02-08T08:21:47.129Z,-1.19
2023-02-08T08:23:49.249Z,-1.11
2023-02-08T08:25:50.825Z,-1.08
2023-02-08T08:27:53.371Z,-1.01
2023-02-08T08:29:55.093Z,-0.97
2023-02-08T08:31:56.782Z,-0.87
2023-02-08T08:33:58.584Z,-0.82
2023-02-08T08:36:00.177Z,-0.75
2023-02-08T08:38:01.835Z,-0.68
2023-02-08T08:40:06.328Z,-0.63
2023-02-08T08:42:07.964Z,-0.57
2023-02-08T08:44:09.933Z,-0.51
2023-02-08T08:46:11.759Z,-0.44
2023-02-08T08:48:13.445Z,-0.36
2023-02-08T08:50:15.320Z,-0.30
2023-02-08T08:52:17.559Z,-0.23
2023-02-08T08:54:22.637Z,-0.17
2023-02-08T08:56:27.043Z,-0.10
2023-02-08T08:58:32.060Z,-0.03
2023-02-08T09:00:33.825Z,0.06
2023-02-08T09:02:38.423Z,0.14
2023-02-08T09:04:43.032Z,0.21
2023-02-08T09:06:44.597Z,0.28
2023-02-08T09:08:46.092Z,0.34
2023-02-08T09:10:47.787Z,0.44
2023-02-08T09:12:53.027Z,0.51
2023-02-08T09:14:57.896Z,0.60
2023-02-08T09:16:59.793Z,0.68
2023-02-08T09:19:02.599Z,0.78
2023-02-08T09:21:09.300Z,0.86
2023-02-08T09:23:20.166Z,0.97
2023-02-08T09:25:22.975Z,1.05
2023-02-08T09:27:25.815Z,1.13
2023-02-08T09:29:30.181Z,1.22
2023-02-08T09:31:39.672Z,1.32
2023-02-08T09:33:46.637Z,1.42
2023-02-08T09:35:49.687Z,1.50
2023-02-08T09:37:55.390Z,1.60
2023-02-08T09:40:00.077Z,1.68
2023-02-08T09:42:12.943Z,1.78
2023-02-08T09:44:51.915Z,1.89
2023-02-08T09:47:11.814Z,2.03
2023-02-08T09:49:21.673Z,2.16
2023-02-08T09:51:32.261Z,2.27
2023-02-08T09:53:40.339Z,2.39
2023-02-08T09:55:48.525Z,2.52
2023-02-08T09:57:53.537Z,2.64
2023-02-08T10:00:14.976Z,2.77
2023-02-08T10:02:29.389Z,2.91
2023-02-08T10:04:44.522Z,3.05
2023-02-08T10:06:50.152Z,3.19
2023-02-08T10:08:55.320Z,3.33
2023-02-08T10:11:24.688Z,3.48
2023-02-08T10:13:41.038Z,3.63
2023-02-08T10:16:01.690Z,3.77
2023-02-08T10:18:35.833Z,3.94
2023-02-08T10:20:53.405Z,4.11
2023-02-08T10:22:57.624Z,4.27
2023-02-08T10:25:23.166Z,4.43
2023-02-08T10:27:49.360Z,4.62
2023-02-08T10:30:15.409Z,4.81
2023-02-08T10:32:38.647Z,4.99
2023-02-08T10:34:46.011Z,5.17
2023-02-08T10:36:50.706Z,5.34
2023-02-08T10:38:57.767Z,5.52
2023-02-08T10:41:02.791Z,5.69
2023-02-08T10:43:10.717Z,5.90
2023-02-08T10:45:27.770Z,6.15
2023-02-08T10:47:36.149Z,6.43
2023-02-08T10:50:09.462Z,6.75
2023-02-08T10:52:11.518Z,7.15
2023-02-08T10:54:14.614Z,7.51
2023-02-08T10:56:32.207Z,7.89
2023-02-08T10:58:33.938Z,8.27
2023-02-08T11:00:39.508Z,8.66
2023-02-08T11:02:42.175Z,9.03
2023-02-08T11:04:59.386Z,9.41
2023-02-08T11:07:20.229Z,9.79
2023-02-08T11:09:27.765Z,10.18
2023-02-08T11:11:39.238Z,10.50
2023-02-08T11:13:48.103Z,10.80
2023-02-08T11:15:52.817Z,11.11
2023-02-08T11:18:03.601Z,11.41
2023-02-08T11:20:06.572Z,11.68
2023-02-08T11:22:17.815Z,11.93
2023-02-08T11:24:28.194Z,12.17
2023-02-08T11:26:38.181Z,12.39
2023-02-08T11:28:39.770Z,12.60
2023-02-08T11:30:41.441Z,12.78
2023-02-08T11:32:48.838Z,12.95
2023-02-08T11:35:12.697Z,13.12
2023-02-08T11:37:26.624Z,13.28
2023-02-08T11:39:41.505Z,13.42
2023-02-08T11:41:46.325Z,13.56
2023-02-08T11:44:07.840Z,13.69
2023-02-08T11:46:10.880Z,13.81
2023-02-08T11:48:33.083Z,13.89
2023-02-08T11:50:38.015Z,13.98
2023-02-08T11:52:43.157Z,14.04
2023-02-08T11:54:44.680Z,14.08
2023-02-08T11:57:01.987Z,14.10
2023-02-08T11:59:21.284Z,14.13
2023-02-08T12:01:27.288Z,14.16
2023-02-08T12:03:37.415Z,14.18
2023-02-08T12:05:49.094Z,14.22
2023-02-08T12:07:53.749Z,14.23
2023-02-08T12:10:10.110Z,14.21
2023-02-08T12:12:31.563Z,14.22
2023-02-08T12:15:01.592Z,14.18
2023-02-08T12:17:24.485Z,14.18
2023-02-08T12:19:56.865Z,14.17
2023-02-08T12:22:13.237Z,14.15
2023-02-08T12:24:29.437Z,14.11
2023-02-08T12:26:44.349Z,14.09
2023-02-08T12:29:20.670Z,14.06
2023-02-08T12:31:42.512Z,14.02
2023-02-08T12:34:16.537Z,13.98
2023-02-08T12:36:32.804Z,13.97
2023-02-08T12:39:24.666Z,13.97
2023-02-08T12:41:37.962Z,13.99
2023-02-08T12:44:02.415Z,14.02
2023-02-08T12:46:13.304Z,14.07
2023-02-08T12:48:35.983Z,14.11
2023-02-08T12:51:06.660Z,14.15
2023-02-08T12:53:25.658Z,14.20
2023-02-08T12:55:38.281Z,14.25
2023-02-08T12:57:44.099Z,14.30
2023-02-08T12:59:51.479Z,14.35
2023-02-08T13:02:00.286Z,14.37
2023-02-08T13:04:21.499Z,14.38
2023-02-08T13:06:38.057Z,14.38
2023-02-08T13:08:59.847Z,14.38
2023-02-08T13:11:19.469Z,14.39
2023-02-08T13:13:26.523Z,14.38
2023-02-08T13:15:42.145Z,14.34
2023-02-08T13:17:51.455Z,14.31
2023-02-08T13:20:05.162Z,14.26
2023-02-08T13:22:07.559Z,14.23
2023-02-08T13:24:34.457Z,14.17
2023-02-08T13:26:39.971Z,14.15
2023-02-08T13:28:56.401Z,14.10
2023-02-08T13:31:13.850Z,14.06
2023-02-08T13:33:21.671Z,14.00
2023-02-08T13:35:30.624Z,13.96
2023-02-08T13:37:34.749Z,13.92
2023-02-08T13:39:44.142Z,13.85
2023-02-08T13:41:54.120Z,13.79
2023-02-08T13:44:04.536Z,13.73
2023-02-08T13:46:07.184Z,13.69
2023-02-08T13:48:12.633Z,13.63
2023-02-08T13:50:49.669Z,13.58
2023-02-08T13:52:52.276Z,13.53
2023-02-08T13:55:43.250Z,13.50
2023-02-08T13:57:56.154Z,13.46
2023-02-08T14:00:22.772Z,13.43
2023-02-08T14:02:26.981Z,13.43
2023-02-08T14:04:34.658Z,13.40
2023-02-08T14:06:49.995Z,13.34
2023-02-08T14:09:03.846Z,13.30
2023-02-08T14:11:25.444Z,13.27
2023-02-08T14:13:36.621Z,13.21
2023-02-08T14:15:41.179Z,13.17
2023-02-08T14:17:49.640Z,13.11
2023-02-08T14:20:06.004Z,13.04
2023-02-08T14:22:13.730Z,12.98
2023-02-08T14:24:28.660Z,12.93
2023-02-08T14:26:31.290Z,12.86
2023-02-08T14:28:38.428Z,12.81
2023-02-08T14:30:41.346Z,12.73
2023-02-08T14:32:46.467Z,12.64
2023-02-08T14:34:51.813Z,12.58
2023-02-08T14:37:06.782Z,12.50
2023-02-08T14:39:27.740Z,12.42
2023-02-08T14:42:00.368Z,12.30
2023-02-08T14:44:50.680Z,12.20
2023-02-08T14:46:52.455Z,12.11
2023-02-08T14:48:54.941Z,12.03
2023-02-08T14:51:08.895Z,11.94
2023-02-08T14:53:13.708Z,11.88
2023-02-08T14:55:21.603Z,11.79
2023-02-08T14:57:29.667Z,11.71
2023-02-08T14:59:34.399Z,11.65
2023-02-08T15:01:44.528Z,11.54
2023-02-08T15:03:54.786Z,11.46
2023-02-08T15:06:22.486Z,11.36
2023-02-08T15:08:24.661Z,11.27
2023-02-08T15:10:28.665Z,11.18
2023-02-08T15:12:34.296Z,11.10
2023-02-08T15:14:39.701Z,11.01
2023-02-08T15:16:44.209Z,10.92
2023-02-08T15:18:49.720Z,10.83
2023-02-08T15:21:08.292Z,10.75
2023-02-08T15:23:24.967Z,10.64
2023-02-08T15:25:35.104Z,10.55
2023-02-08T15:27:36.939Z,10.47
2023-02-08T15:29:44.637Z,10.39
2023-02-08T15:31:47.265Z,10.31
2023-02-08T15:33:49.744Z,10.24
2023-02-08T15:36:06.570Z,10.15
2023-02-08T15:38:19.251Z,10.06
2023-02-08T15:40:30.675Z,9.98
2023-02-08T15:42:43.899Z,9.89
2023-02-08T15:44:46.740Z,9.82
2023-02-08T15:48:53.936Z,9.67
2023-02-08T15:50:57.702Z,9.59
2023-02-08T15:53:06.293Z,9.50
2023-02-08T15:55:14.210Z,9.43
2023-02-08T15:57:46.891Z,9.34
2023-02-08T15:59:49.302Z,9.26
2023-02-08T16:01:52.270Z,9.17
2023-02-08T16:03:59.550Z,9.08
2023-02-08T16:06:07.156Z,9.01
2023-02-08T16:08:31.815Z,8.91
2023-02-08T16:10:38.866Z,8.82
2023-02-08T16:12:44.737Z,8.74
2023-02-08T16:14:52.407Z,8.66
2023-02-08T16:17:00.461Z,8.59
2023-02-08T16:19:06.809Z,8.51
2023-02-08T16:21:33.133Z,8.41
2023-02-08T16:23:39.904Z,8.34
2023-02-08T16:25:41.506Z,8.26
2023-02-08T16:27:48.165Z,8.21
2023-02-08T16:29:50.157Z,8.14
2023-02-08T16:32:12.616Z,8.07
2023-02-08T16:34:19.671Z,7.99
2023-02-08T16:36:31.130Z,7.93
2023-02-08T16:38:34.281Z,7.86
2023-02-08T16:41:04.295Z,7.80
2023-02-08T16:43:34.391Z,7.69
2023-02-08T16:45:37.994Z,7.62
2023-02-08T16:47:58.403Z,7.56
2023-02-08T16:50:01.838Z,7.49
2023-02-08T16:52:08.676Z,7.43
2023-02-08T16:54:15.284Z,7.37
2023-02-08T16:56:17.031Z,7.29
2023-02-08T16:58:18.731Z,7.23
2023-02-08T17:00:30.223Z,7.16
2023-02-08T17:02:31.903Z,7.09
2023-02-08T17:04:35.226Z,7.04
2023-02-08T17:06:38.249Z,6.97
2023-02-08T17:08:39.788Z,6.93
2023-02-08T17:10:42.949Z,6.88
2023-02-08T17:12:46.981Z,6.82
2023-02-08T17:14:49.154Z,6.77
2023-02-08T17:16:56.052Z,6.69
2023-02-08T17:18:59.699Z,6.64
2023-02-08T17:21:02.003Z,6.59
2023-02-08T17:23:07.479Z,6.52
2023-02-08T17:25:10.573Z,6.45
2023-02-08T17:27:14.930Z,6.40
2023-02-08T17:29:19.127Z,6.34
2023-02-08T17:31:21.062Z,6.30
2023-02-08T17:33:23.024Z,6.25
2023-02-08T17:35:28.408Z,6.19
2023-02-08T17:37:31.799Z,6.14
2023-02-08T17:39:33.759Z,6.09
2023-02-08T17:41:35.759Z,6.03
2023-02-08T17:43:37.372Z,5.98
2023-02-08T17:45:41.410Z,5.91
2023-02-08T17:47:43.476Z,5.88
2023-02-08T17:49:45.089Z,5.83
2023-02-08T17:51:48.817Z,5.79
2023-02-08T17:53:53.357Z,5.73
2023-02-08T17:55:55.026Z,5.70
2023-02-08T17:57:58.181Z,5.63
2023-02-08T17:59:59.878Z,5.59
2023-02-08T18:02:01.614Z,5.55
2023-02-08T18:04:03.427Z,5.50
2023-02-08T18:06:08.285Z,5.44
2023-02-08T18:08:10.150Z,5.41
2023-02-08T18:10:16.186Z,5.37
2023-02-08T18:12:18.067Z,5.33
2023-02-08T18:14:20.425Z,5.29
2023-02-08T18:16:28.898Z,5.25
2023-02-08T18:18:30.696Z,5.19
2023-02-08T18:20:52.738Z,5.14
2023-02-08T18:22:54.529Z,5.11
2023-02-08T18:24:56.313Z,5.07
2023-02-08T18:26:59.907Z,5.03
2023-02-08T18:29:02.358Z,5.00
2023-02-08T18:31:14.422Z,4.97
2023-02-08T18:33:16.235Z,4.94
2023-02-08T18:35:17.936Z,4.91
2023-02-08T18:37:19.737Z,4.91
2023-02-08T18:39:23.222Z,4.88
2023-02-08T18:41:30.010Z,4.86
2023-02-08T18:43:31.748Z,4.80
2023-02-08T18:45:33.895Z,4.78
2023-02-08T18:47:37.339Z,4.77
2023-02-08T18:49:41.019Z,4.73
2023-02-08T18:51:50.099Z,4.70
2023-02-08T18:53:54.450Z,4.65
2023-02-08T18:55:57.835Z,4.64
2023-02-08T18:57:59.433Z,4.61
2023-02-08T19:00:01.230Z,4.59
2023-02-08T19:02:07.450Z,4.55
2023-02-08T19:04:09.686Z,4.49
2023-02-08T19:06:18.260Z,4.45
2023-02-08T19:08:20.552Z,4.46
2023-02-08T19:10:22.325Z,4.43
2023-02-08T19:12:23.872Z,4.40
2023-02-08T19:14:25.707Z,4.37
2023-02-08T19:16:29.201Z,4.36
2023-02-08T19:18:44.812Z,4.36
2023-02-08T19:20:46.467Z,4.32
2023-02-08T19:22:48.084Z,4.28
2023-02-08T19:24:52.143Z,4.27
2023-02-08T19:26:55.089Z,4.25
2023-02-08T19:29:00.308Z,4.23
2023-02-08T19:31:09.850Z,4.20
2023-02-08T19:33:11.771Z,4.18
2023-02-08T19:35:14.376Z,4.13
2023-02-08T19:37:16.066Z,4.12
2023-02-08T19:39:23.186Z,4.11
2023-02-08T19:41:28.439Z,4.09
2023-02-08T19:43:31.040Z,4.08
2023-02-08T19:45:35.225Z,4.06
2023-02-08T19:47:50.990Z,4.03
2023-02-08T19:49:53.534Z,3.99
2023-02-08T19:51:55.159Z,3.96
2023-02-08T19:54:01.628Z,3.97
2023-02-08T19:56:17.568Z,3.93
2023-02-08T19:58:19.199Z,3.89
2023-02-08T20:00:23.838Z,3.85
2023-02-08T20:02:27.439Z,3.83
2023-02-08T20:04:30.177Z,3.80
2023-02-08T20:06:39.481Z,3.81
2023-02-08T20:08:45.747Z,3.77
2023-02-08T20:10:48.374Z,3.79
2023-02-08T20:12:53.585Z,3.77
2023-02-08T20:15:03.597Z,3.72
2023-02-08T20:17:07.211Z,3.72
2023-02-08T20:19:11.289Z,3.69
2023-02-08T20:21:16.247Z,3.66
2023-02-08T20:23:22.722Z,3.65
2023-02-08T20:25:26.960Z,3.63
2023-02-08T20:27:32.238Z,3.58
2023-02-08T20:29:33.929Z,3.57
2023-02-08T20:31:41.052Z,3.54
2023-02-08T20:33:51.933Z,3.50
2023-02-08T20:35:55.741Z,3.49
2023-02-08T20:38:00.067Z,3.46
2023-02-08T20:40:02.209Z,3.40
2023-02-08T20:42:04.411Z,3.41
2023-02-08T20:44:05.962Z,3.39
2023-02-08T20:46:09.678Z,3.33
2023-02-08T20:48:11.376Z,3.29
2023-02-08T20:50:18.599Z,3.30
2023-02-08T20:52:24.252Z,3.26
2023-02-08T20:54:26.099Z,3.22
2023-02-08T20:56:32.066Z,3.20
2023-02-08T20:58:34.072Z,3.17
2023-02-08T21:00:43.113Z,3.15
2023-02-08T21:02:46.171Z,3.12
2023-02-08T21:04:48.374Z,3.10
2023-02-08T21:06:54.031Z,3.10
2023-02-08T21:08:57.229Z,3.07
2023-02-08T21:11:01.929Z,3.04
2023-02-08T21:13:03.776Z,3.01
2023-02-08T21:15:06.164Z,2.99
2023-02-08T21:17:08.018Z,2.98
2023-02-08T21:19:15.777Z,2.95
2023-02-08T21:21:18.104Z,2.93
2023-02-08T21:23:19.704Z,2.92
2023-02-08T21:25:21.377Z,2.91
2023-02-08T21:27:24.246Z,2.90
2023-02-08T21:29:26.474Z,2.85
2023-02-08T21:31:28.340Z,2.83
2023-02-08T21:33:30.681Z,2.79
2023-02-08T21:35:35.546Z,2.74
2023-02-08T21:37:37.256Z,2.71
2023-02-08T21:39:38.915Z,2.69
2023-02-08T21:41:41.555Z,2.66
2023-02-08T21:43:43.122Z,2.63
2023-02-08T21:45:44.932Z,2.56
2023-02-08T21:47:46.536Z,2.54
2023-02-08T21:50:06.863Z,2.49
2023-02-08T21:52:28.832Z,2.45
2023-02-08T21:54:41.930Z,2.40
2023-02-08T21:56:43.705Z,2.36
2023-02-08T21:58:45.403Z,2.33
2023-02-08T22:00:47.172Z,2.30
2023-02-08T22:02:48.759Z,2.26
2023-02-08T22:04:53.545Z,2.21
2023-02-08T22:06:58.305Z,2.18
2023-02-08T22:08:59.850Z,2.13
2023-02-08T22:11:04.823Z,2.08
2023-02-08T22:13:06.560Z,2.04
2023-02-08T22:15:10.279Z,2.00
2023-02-08T22:17:20.972Z,1.97
2023-02-08T22:19:22.522Z,1.92
2023-02-08T22:21:24.286Z,1.89
2023-02-08T22:23:25.976Z,1.86
2023-02-08T22:25:28.148Z,1.81
2023-02-08T22:27:30.007Z,1.79
2023-02-08T22:29:32.141Z,1.76
2023-02-08T22:31:33.884Z,1.72
2023-02-08T22:33:36.698Z,1.66
2023-02-08T22:35:38.929Z,1.64
2023-02-08T22:37:40.535Z,1.61
2023-02-08T22:39:42.717Z,1.57
2023-02-08T22:41:46.946Z,1.55
2023-02-08T22:43:49.429Z,1.51
2023-02-08T22:46:05.909Z,1.47
2023-02-08T22:48:07.619Z,1.44
2023-02-08T22:50:15.432Z,1.39
2023-02-08T22:52:17.660Z,1.35
2023-02-08T22:54:19.505Z,1.32
2023-02-08T22:56:21.206Z,1.27
2023-02-08T22:58:24.631Z,1.27
2023-02-08T23:00:26.278Z,1.23
2023-02-08T23:02:28.329Z,1.21
2023-02-08T23:04:30.389Z,1.18
2023-02-08T23:06:33.734Z,1.15
2023-02-08T23:08:37.269Z,1.12
2023-02-08T23:10:39.072Z,1.07
2023-02-08T23:12:40.754Z,1.06
2023-02-08T23:14:42.395Z,1.02
2023-02-08T23:16:44.390Z,1.02
2023-02-08T23:18:46.273Z,0.99
2023-02-08T23:20:49.466Z,0.95
2023-02-08T23:22:51.492Z,0.92
2023-02-08T23:24:54.073Z,0.89
2023-02-08T23:26:55.714Z,0.87
2023-02-08T23:28:57.272Z,0.82
2023-02-08T23:30:59.153Z,0.81
2023-02-08T23:33:00.927Z,0.78
2023-02-08T23:35:02.483Z,0.76
2023-02-08T23:37:04.157Z,0.76
2023-02-08T23:39:05.814Z,0.74
2023-02-08T23:41:10.363Z,0.70
2023-02-08T23:43:11.846Z,0.68
2023-02-08T23:45:13.966Z,0.67
2023-02-08T23:47:15.527Z,0.63
2023-02-08T23:49:17.146Z,0.60
2023-02-08T23:51:24.285Z,0.58
2023-02-08T23:53:27.021Z,0.55
2023-02-08T23:55:35.809Z,0.54
2023-02-08T23:57:38.061Z,0.52
2023-02-08T23:59:40.228Z,0.52
